sensor_id;sensor_type;location;lat;lon;timestamp;temperature;humidity
3980;DHT22;2004;52.452;13.120;2023-03-31T00:07:45;10.50;99.90
3980;DHT22;2004;52.452;13.120;2023-03-31T00:15:38;10.50;99.90
3980;DHT22;2004;52.452;13.120;2023-03-31T00:23:28;10.60;99.90
3980;DHT22;2004;52.452;13.120;2023-03-31T00:31:19;10.50;99.90
3980;DHT22;2004;52.452;13.120;2023-03-31T00:39:10;10.50;99.90
3980;DHT22;2004;52.452;13.120;2023-03-31T00:55:02;10.30;99.90
3980;DHT22;2004;52.452;13.120;2023-03-31T01:03:01;10.20;99.90
3980;DHT22;2004;52.452;13.120;2023-03-31T01:10:59;10.20;99.90
3980;DHT22;2004;52.452;13.120;2023-03-31T01:18:51;10.00;99.90
3980;DHT22;2004;52.452;13.120;2023-03-31T01:35:46;10.00;99.90
3980;DHT22;2004;52.452;13.120;2023-03-31T01:51:43;10.00;99.90
3980;DHT22;2004;52.452;13.120;2023-03-31T02:08:07;10.00;99.90
3980;DHT22;2004;52.452;13.120;2023-03-31T02:16:05;10.00;99.90
3980;DHT22;2004;52.452;13.120;2023-03-31T02:24:01;10.00;99.90
3980;DHT22;2004;52.452;13.120;2023-03-31T02:39:52;10.00;99.90
3980;DHT22;2004;52.452;13.120;2023-03-31T02:47:44;10.00;99.90
3980;DHT22;2004;52.452;13.120;2023-03-31T03:12:37;10.00;99.90
3980;DHT22;2004;52.452;13.120;2023-03-31T03:20:30;10.00;99.90
3980;DHT22;2004;52.452;13.120;2023-03-31T03:28:23;10.10;99.90
3980;DHT22;2004;52.452;13.120;2023-03-31T03:36:14;10.10;99.90
3980;DHT22;2004;52.452;13.120;2023-03-31T03:44:04;10.10;99.90
3980;DHT22;2004;52.452;13.120;2023-03-31T03:51:55;10.10;99.90
3980;DHT22;2004;52.452;13.120;2023-03-31T03:59:45;10.10;99.90
3980;DHT22;2004;52.452;13.120;2023-03-31T04:07:36;10.10;99.90
3980;DHT22;2004;52.452;13.120;2023-03-31T04:15:27;10.10;99.90
3980;DHT22;2004;52.452;13.120;2023-03-31T04:23:17;10.00;99.90
3980;DHT22;2004;52.452;13.120;2023-03-31T04:31:09;10.00;99.90
3980;DHT22;2004;52.452;13.120;2023-03-31T04:39:00;9.90;99.90
3980;DHT22;2004;52.452;13.120;2023-03-31T04:46:50;9.90;99.90
3980;DHT22;2004;52.452;13.120;2023-03-31T04:54:41;9.80;99.90
3980;DHT22;2004;52.452;13.120;2023-03-31T05:02:32;9.80;99.90
3980;DHT22;2004;52.452;13.120;2023-03-31T05:10:23;9.70;99.90
3980;DHT22;2004;52.452;13.120;2023-03-31T05:18:13;9.70;99.90
3980;DHT22;2004;52.452;13.120;2023-03-31T05:26:04;9.60;99.90
3980;DHT22;2004;52.452;13.120;2023-03-31T05:33:55;9.60;99.90
3980;DHT22;2004;52.452;13.120;2023-03-31T05:41:46;9.70;99.90
3980;DHT22;2004;52.452;13.120;2023-03-31T05:49:36;9.70;99.90
3980;DHT22;2004;52.452;13.120;2023-03-31T05:57:27;9.80;99.90
3980;DHT22;2004;52.452;13.120;2023-03-31T06:05:18;9.90;99.90
3980;DHT22;2004;52.452;13.120;2023-03-31T06:13:09;9.90;99.90
3980;DHT22;2004;52.452;13.120;2023-03-31T06:21:00;9.90;99.90
3980;DHT22;2004;52.452;13.120;2023-03-31T06:28:51;10.00;99.90
3980;DHT22;2004;52.452;13.120;2023-03-31T06:36:41;10.10;99.90
3980;DHT22;2004;52.452;13.120;2023-03-31T06:44:32;10.20;99.90
3980;DHT22;2004;52.452;13.120;2023-03-31T06:52:22;10.40;99.90
3980;DHT22;2004;52.452;13.120;2023-03-31T07:00:13;10.50;99.90
3980;DHT22;2004;52.452;13.120;2023-03-31T07:08:04;10.70;99.90
3980;DHT22;2004;52.452;13.120;2023-03-31T07:15:55;10.90;99.90
3980;DHT22;2004;52.452;13.120;2023-03-31T07:23:46;11.00;99.90
3980;DHT22;2004;52.452;13.120;2023-03-31T07:31:37;11.20;99.90
3980;DHT22;2004;52.452;13.120;2023-03-31T07:39:27;11.40;99.90
3980;DHT22;2004;52.452;13.120;2023-03-31T07:47:18;11.60;99.90
3980;DHT22;2004;52.452;13.120;2023-03-31T07:55:09;11.80;99.90
3980;DHT22;2004;52.452;13.120;2023-03-31T08:03:00;12.10;99.90
3980;DHT22;2004;52.452;13.120;2023-03-31T08:10:51;12.20;99.90
3980;DHT22;2004;52.452;13.120;2023-03-31T08:18:41;12.30;99.90
3980;DHT22;2004;52.452;13.120;2023-03-31T08:26:32;12.50;99.90
3980;DHT22;2004;52.452;13.120;2023-03-31T08:34:24;12.60;99.90
3980;DHT22;2004;52.452;13.120;2023-03-31T08:42:22;12.70;99.90
3980;DHT22;2004;52.452;13.120;2023-03-31T08:50:22;12.80;99.90
3980;DHT22;2004;52.452;13.120;2023-03-31T09:06:19;13.20;99.90
3980;DHT22;2004;52.452;13.120;2023-03-31T09:22:05;13.50;99.90
3980;DHT22;2004;52.452;13.120;2023-03-31T09:37:58;13.60;99.90
3980;DHT22;2004;52.452;13.120;2023-03-31T09:45:49;13.70;99.90
3980;DHT22;2004;52.452;13.120;2023-03-31T10:02:34;13.80;99.90
3980;DHT22;2004;52.452;13.120;2023-03-31T10:10:30;13.70;99.90
3980;DHT22;2004;52.452;13.120;2023-03-31T10:18:38;13.60;99.90
3980;DHT22;2004;52.452;13.120;2023-03-31T10:26:29;13.60;99.90
3980;DHT22;2004;52.452;13.120;2023-03-31T10:34:21;13.60;99.90
3980;DHT22;2004;52.452;13.120;2023-03-31T10:42:22;13.50;99.90
3980;DHT22;2004;52.452;13.120;2023-03-31T10:50:14;13.40;99.90
3980;DHT22;2004;52.452;13.120;2023-03-31T10:58:25;13.40;99.90
3980;DHT22;2004;52.452;13.120;2023-03-31T11:47:30;13.40;99.90
3980;DHT22;2004;52.452;13.120;2023-03-31T11:55:24;13.00;99.90
3980;DHT22;2004;52.452;13.120;2023-03-31T12:12:11;13.10;99.90
3980;DHT22;2004;52.452;13.120;2023-03-31T12:20:18;13.30;99.90
3980;DHT22;2004;52.452;13.120;2023-03-31T12:28:11;13.40;99.90
3980;DHT22;2004;52.452;13.120;2023-03-31T12:36:21;13.30;99.90
3980;DHT22;2004;52.452;13.120;2023-03-31T13:00:25;12.90;99.90
3980;DHT22;2004;52.452;13.120;2023-03-31T13:08:52;12.70;99.90
3980;DHT22;2004;52.452;13.120;2023-03-31T13:16:43;12.40;99.90
3980;DHT22;2004;52.452;13.120;2023-03-31T13:24:34;12.20;99.90
3980;DHT22;2004;52.452;13.120;2023-03-31T13:32:25;11.90;99.90
3980;DHT22;2004;52.452;13.120;2023-03-31T13:40:29;11.80;99.90
3980;DHT22;2004;52.452;13.120;2023-03-31T14:12:35;11.10;99.90
3980;DHT22;2004;52.452;13.120;2023-03-31T14:44:36;10.80;99.90
3980;DHT22;2004;52.452;13.120;2023-03-31T14:52:31;10.80;99.90
3980;DHT22;2004;52.452;13.120;2023-03-31T15:00:29;10.70;99.90
3980;DHT22;2004;52.452;13.120;2023-03-31T15:08:21;10.70;99.90
3980;DHT22;2004;52.452;13.120;2023-03-31T15:24:25;10.70;99.90
3980;DHT22;2004;52.452;13.120;2023-03-31T15:32:44;10.80;99.90
3980;DHT22;2004;52.452;13.120;2023-03-31T15:40:38;10.80;99.90
3980;DHT22;2004;52.452;13.120;2023-03-31T15:48:35;10.80;99.90
3980;DHT22;2004;52.452;13.120;2023-03-31T15:56:45;10.80;99.90
3980;DHT22;2004;52.452;13.120;2023-03-31T16:04:35;10.90;99.90
3980;DHT22;2004;52.452;13.120;2023-03-31T16:20:41;10.90;99.90
3980;DHT22;2004;52.452;13.120;2023-03-31T16:28:36;10.90;99.90
3980;DHT22;2004;52.452;13.120;2023-03-31T16:36:27;10.90;99.90
3980;DHT22;2004;52.452;13.120;2023-03-31T16:44:18;10.90;99.90
3980;DHT22;2004;52.452;13.120;2023-03-31T16:52:08;10.90;99.90
3980;DHT22;2004;52.452;13.120;2023-03-31T16:59:59;10.80;99.90
3980;DHT22;2004;52.452;13.120;2023-03-31T17:07:50;10.80;99.90
3980;DHT22;2004;52.452;13.120;2023-03-31T17:15:41;10.80;99.90
3980;DHT22;2004;52.452;13.120;2023-03-31T17:23:31;10.70;99.90
3980;DHT22;2004;52.452;13.120;2023-03-31T17:31:23;10.70;99.90
3980;DHT22;2004;52.452;13.120;2023-03-31T17:39:14;10.60;99.90
3980;DHT22;2004;52.452;13.120;2023-03-31T17:47:05;10.60;99.90
3980;DHT22;2004;52.452;13.120;2023-03-31T17:54:56;10.50;99.90
3980;DHT22;2004;52.452;13.120;2023-03-31T18:02:47;10.50;99.90
3980;DHT22;2004;52.452;13.120;2023-03-31T18:10:37;10.50;99.90
3980;DHT22;2004;52.452;13.120;2023-03-31T18:18:28;10.40;99.90
3980;DHT22;2004;52.452;13.120;2023-03-31T18:26:20;10.40;99.90
3980;DHT22;2004;52.452;13.120;2023-03-31T18:34:11;10.40;99.90
3980;DHT22;2004;52.452;13.120;2023-03-31T18:42:02;10.40;99.90
3980;DHT22;2004;52.452;13.120;2023-03-31T18:49:53;10.40;99.90
3980;DHT22;2004;52.452;13.120;2023-03-31T18:57:45;10.40;99.90
3980;DHT22;2004;52.452;13.120;2023-03-31T19:05:36;10.40;99.90
3980;DHT22;2004;52.452;13.120;2023-03-31T19:13:26;10.40;99.90
3980;DHT22;2004;52.452;13.120;2023-03-31T19:21:18;10.40;99.90
3980;DHT22;2004;52.452;13.120;2023-03-31T19:29:09;10.40;99.90
3980;DHT22;2004;52.452;13.120;2023-03-31T19:36:59;10.40;99.90
3980;DHT22;2004;52.452;13.120;2023-03-31T19:44:51;10.30;99.90
3980;DHT22;2004;52.452;13.120;2023-03-31T19:52:41;10.40;99.90
3980;DHT22;2004;52.452;13.120;2023-03-31T20:00:35;10.40;99.90
3980;DHT22;2004;52.452;13.120;2023-03-31T20:08:26;10.40;99.90
3980;DHT22;2004;52.452;13.120;2023-03-31T20:16:19;10.40;99.90
3980;DHT22;2004;52.452;13.120;2023-03-31T20:24:19;10.40;99.90
3980;DHT22;2004;52.452;13.120;2023-03-31T20:32:10;10.40;99.90
3980;DHT22;2004;52.452;13.120;2023-03-31T20:40:01;10.40;99.90
3980;DHT22;2004;52.452;13.120;2023-03-31T20:47:53;10.40;99.90
3980;DHT22;2004;52.452;13.120;2023-03-31T20:55:44;10.30;99.90
3980;DHT22;2004;52.452;13.120;2023-03-31T21:03:34;10.30;99.90
3980;DHT22;2004;52.452;13.120;2023-03-31T21:11:26;10.30;99.90
3980;DHT22;2004;52.452;13.120;2023-03-31T21:19:17;10.20;99.90
3980;DHT22;2004;52.452;13.120;2023-03-31T21:27:08;10.20;99.90
3980;DHT22;2004;52.452;13.120;2023-03-31T21:34:58;10.20;99.90
3980;DHT22;2004;52.452;13.120;2023-03-31T21:42:49;10.20;99.90
3980;DHT22;2004;52.452;13.120;2023-03-31T21:50:40;10.10;99.90
3980;DHT22;2004;52.452;13.120;2023-03-31T21:58:31;10.10;99.90
3980;DHT22;2004;52.452;13.120;2023-03-31T22:06:22;10.10;99.90
3980;DHT22;2004;52.452;13.120;2023-03-31T22:14:12;10.10;99.90
3980;DHT22;2004;52.452;13.120;2023-03-31T22:22:03;10.00;99.90
3980;DHT22;2004;52.452;13.120;2023-03-31T22:29:54;10.00;99.90
3980;DHT22;2004;52.452;13.120;2023-03-31T22:37:44;10.00;99.90
3980;DHT22;2004;52.452;13.120;2023-03-31T22:45:35;10.00;99.90
3980;DHT22;2004;52.452;13.120;2023-03-31T22:53:27;10.00;99.90
3980;DHT22;2004;52.452;13.120;2023-03-31T23:01:19;9.90;99.90
3980;DHT22;2004;52.452;13.120;2023-03-31T23:09:10;9.90;99.90
3980;DHT22;2004;52.452;13.120;2023-03-31T23:17:00;9.90;99.90
3980;DHT22;2004;52.452;13.120;2023-03-31T23:24:51;9.80;99.90
3980;DHT22;2004;52.452;13.120;2023-03-31T23:32:42;9.80;99.90
3980;DHT22;2004;52.452;13.120;2023-03-31T23:40:32;9.80;99.90
3980;DHT22;2004;52.452;13.120;2023-03-31T23:48:23;9.70;99.90
3980;DHT22;2004;52.452;13.120;2023-03-31T23:56:14;9.70;99.90
